^^
Station Historical Data
Daily Summary for April 14, 2017 Units:  Both    English   Metric
« Previous Day
Next Day »
Daily Weekly Monthly Yearly Custom
  High: Low: Average:
Temperature: 78.4 °F /  25.8 °C 47.8 °F /  8.8 °C 62 °F /  16.7 °C
Dew Point: 47.7 °F /  8.7 °C 39.0 °F /  3.9 °C 44 °F /  6.7 °C
Humidity: 86% 25% 57%
Wind Speed: 8.9mph /  14.3km/h - 1.2mph /  1.9km/h
Wind Gust: 14.0mph /  22.5km/h - -
Wind- - South
Pressure: 29.98 in /  1015.1 hPa 29.88 in /  1011.7 hPa -
Precipitation: 0.00 in /  0 mm    
Historical Graphs
 
 
Tabular Data for April 14, 2017
Time Temperature Dew Point Pressure Wind Wind Speed Wind Gust Humidity Rainfall Rate (Hourly) solar Conditions
00:03 52.2 °F /  11.2 °C 46.2 °F /  7.9 °C 29.90in /  1012.4hPa SE 0.9mph /  1.4km/h 3.0mph /  4.8km/h 80% 0.00in /  0mm 0.0 W/m2
00:09 52.2 °F /  11.2 °C 46.2 °F /  7.9 °C 29.90in /  1012.4hPa SE 2.0mph /  3.2km/h 3.0mph /  4.8km/h 80% 0.00in /  0mm 0.0 W/m2
00:15 52.0 °F /  11.1 °C 46.0 °F /  7.8 °C 29.91in /  1012.8hPa ESE 2.0mph /  3.2km/h 3.0mph /  4.8km/h 80% 0.00in /  0mm 0.0 W/m2
00:21 51.8 °F /  11 °C 46.2 °F /  7.9 °C 29.90in /  1012.4hPa Calm   4.0mph /  6.4km/h 81% 0.00in /  0mm 0.0 W/m2
00:27 51.8 °F /  11 °C 46.2 °F /  7.9 °C 29.90in /  1012.4hPa Calm   2.0mph /  3.2km/h 81% 0.00in /  0mm 0.0 W/m2
00:33 51.6 °F /  10.9 °C 45.7 °F /  7.6 °C 29.91in /  1012.8hPa Calm   1.0mph /  1.6km/h 80% 0.00in /  0mm 0.0 W/m2
00:39 51.6 °F /  10.9 °C 45.7 °F /  7.6 °C 29.90in /  1012.4hPa ESE 2.0mph /  3.2km/h 3.0mph /  4.8km/h 80% 0.00in /  0mm 0.0 W/m2
00:45 51.4 °F /  10.8 °C 45.9 °F /  7.7 °C 29.90in /  1012.4hPa ESE 2.0mph /  3.2km/h 3.0mph /  4.8km/h 81% 0.00in /  0mm 0.0 W/m2
00:51 51.4 °F /  10.8 °C 45.9 °F /  7.7 °C 29.90in /  1012.4hPa East 0.9mph /  1.4km/h 2.0mph /  3.2km/h 81% 0.00in /  0mm 0.0 W/m2
00:57 51.4 °F /  10.8 °C 45.9 °F /  7.7 °C 29.90in /  1012.4hPa Calm     81% 0.00in /  0mm 0.0 W/m2
01:03 51.3 °F /  10.7 °C 46.0 °F /  7.8 °C 29.90in /  1012.4hPa Calm     82% 0.00in /  0mm 0.0 W/m2
01:09 51.1 °F /  10.6 °C 45.9 °F /  7.7 °C 29.90in /  1012.4hPa Calm     82% 0.00in /  0mm 0.0 W/m2
01:15 50.9 °F /  10.5 °C 45.7 °F /  7.6 °C 29.90in /  1012.4hPa Calm     82% 0.00in /  0mm 0.0 W/m2
01:21 50.7 °F /  10.4 °C 45.5 °F /  7.5 °C 29.89in /  1012.1hPa Calm   1.0mph /  1.6km/h 82% 0.00in /  0mm 0.0 W/m2
01:27 50.5 °F /  10.3 °C 45.5 °F /  7.5 °C 29.89in /  1012.1hPa Calm   1.0mph /  1.6km/h 83% 0.00in /  0mm 0.0 W/m2
01:33 50.4 °F /  10.2 °C 45.3 °F /  7.4 °C 29.89in /  1012.1hPa Calm   1.0mph /  1.6km/h 83% 0.00in /  0mm 0.0 W/m2
01:40 50.2 °F /  10.1 °C 45.1 °F /  7.3 °C 29.89in /  1012.1hPa Calm   1.0mph /  1.6km/h 83% 0.00in /  0mm 0.0 W/m2
01:46 49.8 °F /  9.9 °C 45.1 °F /  7.3 °C 29.89in /  1012.1hPa Calm   1.0mph /  1.6km/h 84% 0.00in /  0mm 0.0 W/m2
01:52 49.8 °F /  9.9 °C 45.1 °F /  7.3 °C 29.89in /  1012.1hPa Calm   2.0mph /  3.2km/h 84% 0.00in /  0mm 0.0 W/m2
01:58 49.8 °F /  9.9 °C 45.1 °F /  7.3 °C 29.89in /  1012.1hPa Calm   2.0mph /  3.2km/h 84% 0.00in /  0mm 0.0 W/m2
02:04 49.8 °F /  9.9 °C 44.8 °F /  7.1 °C 29.89in /  1012.1hPa Calm   1.0mph /  1.6km/h 83% 0.00in /  0mm 0.0 W/m2
02:10 49.8 °F /  9.9 °C 45.1 °F /  7.3 °C 29.88in /  1011.7hPa Calm   1.0mph /  1.6km/h 84% 0.00in /  0mm 0.0 W/m2
02:16 49.6 °F /  9.8 °C 45.0 °F /  7.2 °C 29.88in /  1011.7hPa Calm   3.0mph /  4.8km/h 84% 0.00in /  0mm 0.0 W/m2
02:22 49.6 °F /  9.8 °C 45.0 °F /  7.2 °C 29.88in /  1011.7hPa Calm   3.0mph /  4.8km/h 84% 0.00in /  0mm 0.0 W/m2
02:28 49.6 °F /  9.8 °C 45.0 °F /  7.2 °C 29.88in /  1011.7hPa East 0.9mph /  1.4km/h 4.0mph /  6.4km/h 84% 0.00in /  0mm 0.0 W/m2
02:34 49.6 °F /  9.8 °C 45.0 °F /  7.2 °C 29.88in /  1011.7hPa Calm   1.0mph /  1.6km/h 84% 0.00in /  0mm 0.0 W/m2
02:40 49.6 °F /  9.8 °C 45.0 °F /  7.2 °C 29.88in /  1011.7hPa Calm     84% 0.00in /  0mm 0.0 W/m2
02:46 49.5 °F /  9.7 °C 44.8 °F /  7.1 °C 29.88in /  1011.7hPa Calm   1.0mph /  1.6km/h 84% 0.00in /  0mm 0.0 W/m2
02:52 49.5 °F /  9.7 °C 44.8 °F /  7.1 °C 29.88in /  1011.7hPa Calm   1.0mph /  1.6km/h 84% 0.00in /  0mm 0.0 W/m2
02:58 49.5 °F /  9.7 °C 44.8 °F /  7.1 °C 29.88in /  1011.7hPa SE 0.9mph /  1.4km/h 2.0mph /  3.2km/h 84% 0.00in /  0mm 0.0 W/m2
03:04 49.3 °F /  9.6 °C 44.6 °F /  7 °C 29.88in /  1011.7hPa Calm   1.0mph /  1.6km/h 84% 0.00in /  0mm 0.0 W/m2
03:10 49.1 °F /  9.5 °C 44.4 °F /  6.9 °C 29.88in /  1011.7hPa Calm   1.0mph /  1.6km/h 84% 0.00in /  0mm 0.0 W/m2
03:16 48.9 °F /  9.4 °C 44.2 °F /  6.8 °C 29.88in /  1011.7hPa Calm   2.0mph /  3.2km/h 84% 0.00in /  0mm 0.0 W/m2
03:22 48.7 °F /  9.3 °C 44.4 °F /  6.9 °C 29.88in /  1011.7hPa Calm   2.0mph /  3.2km/h 85% 0.00in /  0mm 0.0 W/m2
03:28 48.7 °F /  9.3 °C 44.4 °F /  6.9 °C 29.88in /  1011.7hPa Calm   2.0mph /  3.2km/h 85% 0.00in /  0mm 0.0 W/m2
03:34 48.6 °F /  9.2 °C 44.2 °F /  6.8 °C 29.88in /  1011.7hPa Calm     85% 0.00in /  0mm 0.0 W/m2
03:40 48.6 °F /  9.2 °C 44.2 °F /  6.8 °C 29.88in /  1011.7hPa Calm     85% 0.00in /  0mm 0.0 W/m2
03:46 48.4 °F /  9.1 °C 44.1 °F /  6.7 °C 29.88in /  1011.7hPa ESE 0.9mph /  1.4km/h 4.0mph /  6.4km/h 85% 0.00in /  0mm 0.0 W/m2
03:52 48.4 °F /  9.1 °C 44.4 °F /  6.9 °C 29.89in /  1012.1hPa East 4.0mph /  6.4km/h 4.0mph /  6.4km/h 86% 0.00in /  0mm 0.0 W/m2
03:58 48.4 °F /  9.1 °C 44.4 °F /  6.9 °C 29.89in /  1012.1hPa Calm   2.0mph /  3.2km/h 86% 0.00in /  0mm 0.0 W/m2
04:04 48.4 °F /  9.1 °C 44.4 °F /  6.9 °C 29.89in /  1012.1hPa ENE 0.9mph /  1.4km/h 4.0mph /  6.4km/h 86% 0.00in /  0mm 0.0 W/m2
04:12 48.6 °F /  9.2 °C 44.6 °F /  7 °C 29.90in /  1012.4hPa Calm   3.0mph /  4.8km/h 86% 0.00in /  0mm 0.0 W/m2
04:18 48.4 °F /  9.1 °C 44.4 °F /  6.9 °C 29.90in /  1012.4hPa Calm   1.0mph /  1.6km/h 86% 0.00in /  0mm 0.0 W/m2
04:24 48.4 °F /  9.1 °C 44.4 °F /  6.9 °C 29.90in /  1012.4hPa Calm   1.0mph /  1.6km/h 86% 0.00in /  0mm 0.0 W/m2
04:30 48.2 °F /  9 °C 44.2 °F /  6.8 °C 29.90in /  1012.4hPa Calm     86% 0.00in /  0mm 0.0 W/m2
04:36 48.0 °F /  8.9 °C 44.1 °F /  6.7 °C 29.90in /  1012.4hPa Calm     86% 0.00in /  0mm 0.0 W/m2
04:42 48.0 °F /  8.9 °C 44.1 °F /  6.7 °C 29.90in /  1012.4hPa SSW 4.0mph /  6.4km/h 4.0mph /  6.4km/h 86% 0.00in /  0mm 0.0 W/m2
04:48 48.4 °F /  9.1 °C 43.2 °F /  6.2 °C 29.90in /  1012.4hPa SSE 4.9mph /  7.9km/h 5.0mph /  8km/h 82% 0.00in /  0mm 0.0 W/m2
04:54 48.7 °F /  9.3 °C 43.2 °F /  6.2 °C 29.90in /  1012.4hPa Calm   2.0mph /  3.2km/h 81% 0.00in /  0mm 0.0 W/m2
05:00 48.9 °F /  9.4 °C 42.6 °F /  5.9 °C 29.91in /  1012.8hPa SSE 0.9mph /  1.4km/h 1.0mph /  1.6km/h 79% 0.00in /  0mm 0.0 W/m2
05:06 49.3 °F /  9.6 °C 43.0 °F /  6.1 °C 29.91in /  1012.8hPa East 0.9mph /  1.4km/h 2.0mph /  3.2km/h 79% 0.00in /  0mm 0.0 W/m2
05:12 49.3 °F /  9.6 °C 43.0 °F /  6.1 °C 29.91in /  1012.8hPa ESE 2.9mph /  4.7km/h 4.0mph /  6.4km/h 79% 0.00in /  0mm 0.0 W/m2
05:18 49.3 °F /  9.6 °C 43.3 °F /  6.3 °C 29.91in /  1012.8hPa NE 0.9mph /  1.4km/h 2.0mph /  3.2km/h 80% 0.00in /  0mm 0.0 W/m2
05:24 48.9 °F /  9.4 °C 43.0 °F /  6.1 °C 29.91in /  1012.8hPa Calm   2.0mph /  3.2km/h 80% 0.00in /  0mm 0.0 W/m2
05:30 48.9 °F /  9.4 °C 43.3 °F /  6.3 °C 29.91in /  1012.8hPa Calm   2.0mph /  3.2km/h 81% 0.00in /  0mm 0.0 W/m2
05:36 48.7 °F /  9.3 °C 43.2 °F /  6.2 °C 29.91in /  1012.8hPa Calm   3.0mph /  4.8km/h 81% 0.00in /  0mm 0.0 W/m2
05:42 48.6 °F /  9.2 °C 43.0 °F /  6.1 °C 29.92in /  1013.1hPa Calm   1.0mph /  1.6km/h 81% 0.00in /  0mm 0.0 W/m2
05:48 48.6 °F /  9.2 °C 43.3 °F /  6.3 °C 29.92in /  1013.1hPa ESE 0.9mph /  1.4km/h 2.0mph /  3.2km/h 82% 0.00in /  0mm 0.0 W/m2
05:54 48.4 °F /  9.1 °C 43.2 °F /  6.2 °C 29.92in /  1013.1hPa Calm   1.0mph /  1.6km/h 82% 0.00in /  0mm 0.0 W/m2
06:00 48.0 °F /  8.9 °C 42.8 °F /  6 °C 29.92in /  1013.1hPa SE 2.0mph /  3.2km/h 3.0mph /  4.8km/h 82% 0.00in /  0mm 0.0 W/m2
06:07 47.8 °F /  8.8 °C 42.6 °F /  5.9 °C 29.92in /  1013.1hPa ESE 0.9mph /  1.4km/h 1.0mph /  1.6km/h 82% 0.00in /  0mm 0.0 W/m2
06:13 47.8 °F /  8.8 °C 42.3 °F /  5.7 °C 29.93in /  1013.4hPa Calm     81% 0.00in /  0mm 5.0 W/m2
06:19 47.8 °F /  8.8 °C 42.6 °F /  5.9 °C 29.93in /  1013.4hPa SE 2.0mph /  3.2km/h 3.0mph /  4.8km/h 82% 0.00in /  0mm 7.0 W/m2
06:25 47.8 °F /  8.8 °C 42.3 °F /  5.7 °C 29.93in /  1013.4hPa ENE 0.9mph /  1.4km/h 2.0mph /  3.2km/h 81% 0.00in /  0mm 9.0 W/m2
06:31 47.8 °F /  8.8 °C 42.3 °F /  5.7 °C 29.93in /  1013.4hPa Calm   1.0mph /  1.6km/h 81% 0.00in /  0mm 11.0 W/m2
06:37 47.8 °F /  8.8 °C 42.3 °F /  5.7 °C 29.93in /  1013.4hPa Calm   3.0mph /  4.8km/h 81% 0.00in /  0mm 12.0 W/m2
06:43 48.0 °F /  8.9 °C 42.1 °F /  5.6 °C 29.93in /  1013.4hPa Calm   2.0mph /  3.2km/h 80% 0.00in /  0mm 12.0 W/m2
06:49 48.6 °F /  9.2 °C 42.3 °F /  5.7 °C 29.93in /  1013.4hPa Calm   5.0mph /  8km/h 79% 0.00in /  0mm 14.0 W/m2
06:55 48.9 °F /  9.4 °C 43.0 °F /  6.1 °C 29.93in /  1013.4hPa Calm   4.0mph /  6.4km/h 80% 0.00in /  0mm 16.0 W/m2
07:01 49.5 °F /  9.7 °C 43.5 °F /  6.4 °C 29.93in /  1013.4hPa ENE 0.9mph /  1.4km/h 4.0mph /  6.4km/h 80% 0.00in /  0mm 16.0 W/m2
07:07 50.2 °F /  10.1 °C 44.2 °F /  6.8 °C 29.94in /  1013.8hPa Calm   2.0mph /  3.2km/h 80% 0.00in /  0mm 18.0 W/m2
07:14 50.7 °F /  10.4 °C 44.4 °F /  6.9 °C 29.94in /  1013.8hPa Calm   4.0mph /  6.4km/h 79% 0.00in /  0mm 18.0 W/m2
07:20 51.4 °F /  10.8 °C 44.8 °F /  7.1 °C 29.94in /  1013.8hPa Calm   4.0mph /  6.4km/h 78% 0.00in /  0mm 19.0 W/m2
07:26 52.2 °F /  11.2 °C 45.1 °F /  7.3 °C 29.94in /  1013.8hPa Calm   6.0mph /  9.7km/h 77% 0.00in /  0mm 19.0 W/m2
07:32 52.9 °F /  11.6 °C 45.5 °F /  7.5 °C 29.94in /  1013.8hPa ENE 2.0mph /  3.2km/h 5.0mph /  8km/h 76% 0.00in /  0mm 21.0 W/m2
07:38 53.8 °F /  12.1 °C 46.0 °F /  7.8 °C 29.94in /  1013.8hPa Calm   5.0mph /  8km/h 75% 0.00in /  0mm 21.0 W/m2
07:44 54.7 °F /  12.6 °C 45.9 °F /  7.7 °C 29.95in /  1014.1hPa East 2.9mph /  4.7km/h 6.0mph /  9.7km/h 72% 0.00in /  0mm 21.0 W/m2
07:50 55.8 °F /  13.2 °C 45.3 °F /  7.4 °C 29.94in /  1013.8hPa Calm   6.0mph /  9.7km/h 68% 0.00in /  0mm 23.0 W/m2
07:56 56.8 °F /  13.8 °C 44.8 °F /  7.1 °C 29.94in /  1013.8hPa East 2.0mph /  3.2km/h 8.0mph /  12.9km/h 64% 0.00in /  0mm 23.0 W/m2
08:02 58.3 °F /  14.6 °C 44.1 °F /  6.7 °C 29.95in /  1014.1hPa East 2.0mph /  3.2km/h 7.0mph /  11.3km/h 59% 0.00in /  0mm 25.0 W/m2
08:08 59.2 °F /  15.1 °C 44.4 °F /  6.9 °C 29.94in /  1013.8hPa ENE 2.9mph /  4.7km/h 6.0mph /  9.7km/h 58% 0.00in /  0mm 26.0 W/m2
08:14 60.1 °F /  15.6 °C 44.8 °F /  7.1 °C 29.94in /  1013.8hPa NE 4.9mph /  7.9km/h 5.0mph /  8km/h 57% 0.00in /  0mm 26.0 W/m2
08:20 60.6 °F /  15.9 °C 44.4 °F /  6.9 °C 29.95in /  1014.1hPa ESE 2.0mph /  3.2km/h 7.0mph /  11.3km/h 55% 0.00in /  0mm 28.0 W/m2
08:26 61.2 °F /  16.2 °C 43.9 °F /  6.6 °C 29.95in /  1014.1hPa NE 4.0mph /  6.4km/h 8.0mph /  12.9km/h 53% 0.00in /  0mm 28.0 W/m2
08:33 61.9 °F /  16.6 °C 44.6 °F /  7 °C 29.95in /  1014.1hPa ESE 2.0mph /  3.2km/h 7.0mph /  11.3km/h 53% 0.00in /  0mm 35.0 W/m2
08:39 62.4 °F /  16.9 °C 44.1 °F /  6.7 °C 29.95in /  1014.1hPa NE 4.0mph /  6.4km/h 8.0mph /  12.9km/h 51% 0.00in /  0mm 563.0 W/m2
08:45 63.7 °F /  17.6 °C 44.8 °F /  7.1 °C 29.95in /  1014.1hPa East 2.9mph /  4.7km/h 8.0mph /  12.9km/h 50% 0.00in /  0mm 582.0 W/m2
08:51 64.8 °F /  18.2 °C 45.1 °F /  7.3 °C 29.95in /  1014.1hPa ENE 2.0mph /  3.2km/h 7.0mph /  11.3km/h 49% 0.00in /  0mm 599.0 W/m2
08:57 65.7 °F /  18.7 °C 46.0 °F /  7.8 °C 29.95in /  1014.1hPa East 0.9mph /  1.4km/h 7.0mph /  11.3km/h 49% 0.00in /  0mm 621.0 W/m2
09:03 66.6 °F /  19.2 °C 45.1 °F /  7.3 °C 29.95in /  1014.1hPa East 2.0mph /  3.2km/h 7.0mph /  11.3km/h 46% 0.00in /  0mm 642.0 W/m2
09:09 67.3 °F /  19.6 °C 45.1 °F /  7.3 °C 29.95in /  1014.1hPa NE 2.9mph /  4.7km/h 8.0mph /  12.9km/h 45% 0.00in /  0mm 659.0 W/m2
09:15 68.2 °F /  20.1 °C 46.6 °F /  8.1 °C 29.95in /  1014.1hPa NE 2.0mph /  3.2km/h 7.0mph /  11.3km/h 46% 0.00in /  0mm 673.0 W/m2
09:21 68.9 °F /  20.5 °C 46.8 °F /  8.2 °C 29.95in /  1014.1hPa East 4.0mph /  6.4km/h 6.0mph /  9.7km/h 45% 0.00in /  0mm 693.0 W/m2
09:28 70.0 °F /  21.1 °C 46.4 °F /  8 °C 29.94in /  1013.8hPa East 2.0mph /  3.2km/h 3.0mph /  4.8km/h 43% 0.00in /  0mm 707.0 W/m2
09:34 70.5 °F /  21.4 °C 46.9 °F /  8.3 °C 29.94in /  1013.8hPa NNW 0.9mph /  1.4km/h 2.0mph /  3.2km/h 43% 0.00in /  0mm 722.0 W/m2
09:40 71.2 °F /  21.8 °C 46.4 °F /  8 °C 29.94in /  1013.8hPa ENE 4.9mph /  7.9km/h 6.0mph /  9.7km/h 41% 0.00in /  0mm 735.0 W/m2
09:46 72.0 °F /  22.2 °C 47.7 °F /  8.7 °C 29.94in /  1013.8hPa NW 0.9mph /  1.4km/h 3.0mph /  4.8km/h 42% 0.00in /  0mm 747.0 W/m2
09:52 72.3 °F /  22.4 °C 44.6 °F /  7 °C 29.94in /  1013.8hPa NNW 2.9mph /  4.7km/h 3.0mph /  4.8km/h 37% 0.00in /  0mm 765.0 W/m2
09:58 72.9 °F /  22.7 °C 43.5 °F /  6.4 °C 29.94in /  1013.8hPa North 4.0mph /  6.4km/h 9.0mph /  14.5km/h 35% 0.00in /  0mm 780.0 W/m2
10:05 73.2 °F /  22.9 °C 43.9 °F /  6.6 °C 29.94in /  1013.8hPa NNW 4.9mph /  7.9km/h 6.0mph /  9.7km/h 35% 0.00in /  0mm 791.0 W/m2
10:11 73.4 °F /  23 °C 42.6 °F /  5.9 °C 29.94in /  1013.8hPa West 2.9mph /  4.7km/h 6.0mph /  9.7km/h 33% 0.00in /  0mm 803.0 W/m2
10:17 73.8 °F /  23.2 °C 42.1 °F /  5.6 °C 29.94in /  1013.8hPa NNE 4.0mph /  6.4km/h 6.0mph /  9.7km/h 32% 0.00in /  0mm 812.0 W/m2
10:23 74.1 °F /  23.4 °C 43.2 °F /  6.2 °C 29.94in /  1013.8hPa Calm   6.0mph /  9.7km/h 33% 0.00in /  0mm 821.0 W/m2
10:29 74.1 °F /  23.4 °C 43.2 °F /  6.2 °C 29.94in /  1013.8hPa Calm   6.0mph /  9.7km/h 33% 0.00in /  0mm 826.0 W/m2
10:35 74.5 °F /  23.6 °C 42.6 °F /  5.9 °C 29.94in /  1013.8hPa North 2.9mph /  4.7km/h 8.0mph /  12.9km/h 32% 0.00in /  0mm 838.0 W/m2
10:41 74.8 °F /  23.8 °C 40.5 °F /  4.7 °C 29.94in /  1013.8hPa NNW 4.9mph /  7.9km/h 10.0mph /  16.1km/h 29% 0.00in /  0mm 849.0 W/m2
10:47 74.8 °F /  23.8 °C 41.4 °F /  5.2 °C 29.93in /  1013.4hPa North 2.0mph /  3.2km/h 4.0mph /  6.4km/h 30% 0.00in /  0mm 849.0 W/m2
10:53 75.0 °F /  23.9 °C 43.2 °F /  6.2 °C 29.93in /  1013.4hPa NNW 0.9mph /  1.4km/h 4.0mph /  6.4km/h 32% 0.00in /  0mm 856.0 W/m2
11:00 75.4 °F /  24.1 °C 41.0 °F /  5 °C 29.93in /  1013.4hPa WSW 0.9mph /  1.4km/h 4.0mph /  6.4km/h 29% 0.00in /  0mm 863.0 W/m2
11:06 75.6 °F /  24.2 °C 41.9 °F /  5.5 °C 29.93in /  1013.4hPa West 2.0mph /  3.2km/h 9.0mph /  14.5km/h 30% 0.00in /  0mm 868.0 W/m2
11:12 75.9 °F /  24.4 °C 41.4 °F /  5.2 °C 29.93in /  1013.4hPa NE 2.0mph /  3.2km/h 4.0mph /  6.4km/h 29% 0.00in /  0mm 874.0 W/m2
11:18 75.9 °F /  24.4 °C 40.5 °F /  4.7 °C 29.93in /  1013.4hPa NNW 4.0mph /  6.4km/h 7.0mph /  11.3km/h 28% 0.00in /  0mm 879.0 W/m2
11:24 75.9 °F /  24.4 °C 43.2 °F /  6.2 °C 29.93in /  1013.4hPa NW 2.9mph /  4.7km/h 6.0mph /  9.7km/h 31% 0.00in /  0mm 882.0 W/m2
11:30 75.7 °F /  24.3 °C 40.3 °F /  4.6 °C 29.93in /  1013.4hPa North 4.0mph /  6.4km/h 9.0mph /  14.5km/h 28% 0.00in /  0mm 884.0 W/m2
11:36 75.7 °F /  24.3 °C 42.1 °F /  5.6 °C 29.93in /  1013.4hPa NNW 6.0mph /  9.7km/h 14.0mph /  22.5km/h 30% 0.00in /  0mm 884.0 W/m2
11:42 75.6 °F /  24.2 °C 41.0 °F /  5 °C 29.92in /  1013.1hPa NNE 0.9mph /  1.4km/h 8.0mph /  12.9km/h 29% 0.00in /  0mm 884.0 W/m2
11:48 75.6 °F /  24.2 °C 41.0 °F /  5 °C 29.92in /  1013.1hPa NNW 6.0mph /  9.7km/h 13.0mph /  20.9km/h 29% 0.00in /  0mm 886.0 W/m2
11:55 75.6 °F /  24.2 °C 41.0 °F /  5 °C 29.92in /  1013.1hPa NNW 0.9mph /  1.4km/h 3.0mph /  4.8km/h 29% 0.00in /  0mm 884.0 W/m2
12:01 75.9 °F /  24.4 °C 39.6 °F /  4.2 °C 29.92in /  1013.1hPa NNW 4.9mph /  7.9km/h 9.0mph /  14.5km/h 27% 0.00in /  0mm 886.0 W/m2
12:07 76.1 °F /  24.5 °C 41.5 °F /  5.3 °C 29.91in /  1012.8hPa NNE 4.0mph /  6.4km/h 4.0mph /  6.4km/h 29% 0.00in /  0mm 881.0 W/m2
12:13 76.5 °F /  24.7 °C 42.8 °F /  6 °C 29.91in /  1012.8hPa NW 6.0mph /  9.7km/h 9.0mph /  14.5km/h 30% 0.00in /  0mm 879.0 W/m2
12:19 76.6 °F /  24.8 °C 41.2 °F /  5.1 °C 29.91in /  1012.8hPa NW 6.0mph /  9.7km/h 9.0mph /  14.5km/h 28% 0.00in /  0mm 879.0 W/m2
12:25 76.8 °F /  24.9 °C 41.2 °F /  5.1 °C 29.91in /  1012.8hPa NW 2.0mph /  3.2km/h 10.0mph /  16.1km/h 28% 0.00in /  0mm 872.0 W/m2
12:31 76.6 °F /  24.8 °C 42.1 °F /  5.6 °C 29.91in /  1012.8hPa WNW 6.9mph /  11.1km/h 7.0mph /  11.3km/h 29% 0.00in /  0mm 865.0 W/m2
12:37 76.6 °F /  24.8 °C 41.2 °F /  5.1 °C 29.91in /  1012.8hPa NNW 2.0mph /  3.2km/h 11.0mph /  17.7km/h 28% 0.00in /  0mm 861.0 W/m2
12:44 76.5 °F /  24.7 °C 41.0 °F /  5 °C 29.91in /  1012.8hPa Calm   7.0mph /  11.3km/h 28% 0.00in /  0mm 853.0 W/m2
12:50 76.6 °F /  24.8 °C 41.2 °F /  5.1 °C 29.91in /  1012.8hPa North 2.0mph /  3.2km/h 7.0mph /  11.3km/h 28% 0.00in /  0mm 844.0 W/m2
12:56 76.8 °F /  24.9 °C 39.4 °F /  4.1 °C 29.91in /  1012.8hPa West 2.0mph /  3.2km/h 4.0mph /  6.4km/h 26% 0.00in /  0mm 835.0 W/m2
13:02 76.8 °F /  24.9 °C 43.0 °F /  6.1 °C 29.91in /  1012.8hPa West 2.9mph /  4.7km/h 7.0mph /  11.3km/h 30% 0.00in /  0mm 830.0 W/m2
13:08 77.2 °F /  25.1 °C 39.6 °F /  4.2 °C 29.91in /  1012.8hPa NW 2.0mph /  3.2km/h 8.0mph /  12.9km/h 26% 0.00in /  0mm 821.0 W/m2
13:14 77.4 °F /  25.2 °C 41.7 °F /  5.4 °C 29.90in /  1012.4hPa NNE 0.9mph /  1.4km/h 3.0mph /  4.8km/h 28% 0.00in /  0mm 809.0 W/m2
13:20 77.5 °F /  25.3 °C 39.0 °F /  3.9 °C 29.90in /  1012.4hPa NNW 4.0mph /  6.4km/h 12.0mph /  19.3km/h 25% 0.00in /  0mm 800.0 W/m2
13:26 77.5 °F /  25.3 °C 41.0 °F /  5 °C 29.90in /  1012.4hPa NNW 0.9mph /  1.4km/h 5.0mph /  8km/h 27% 0.00in /  0mm 782.0 W/m2
13:32 77.7 °F /  25.4 °C 41.0 °F /  5 °C 29.90in /  1012.4hPa NNW 4.0mph /  6.4km/h 8.0mph /  12.9km/h 27% 0.00in /  0mm 775.0 W/m2
13:39 77.9 °F /  25.5 °C 40.3 °F /  4.6 °C 29.90in /  1012.4hPa NW 2.9mph /  4.7km/h 8.0mph /  12.9km/h 26% 0.00in /  0mm 763.0 W/m2
13:45 77.9 °F /  25.5 °C 42.3 °F /  5.7 °C 29.90in /  1012.4hPa West 0.9mph /  1.4km/h 7.0mph /  11.3km/h 28% 0.00in /  0mm 744.0 W/m2
13:51 78.1 °F /  25.6 °C 43.2 °F /  6.2 °C 29.90in /  1012.4hPa SE 0.9mph /  1.4km/h 5.0mph /  8km/h 29% 0.00in /  0mm 733.0 W/m2
13:57 78.1 °F /  25.6 °C 43.2 °F /  6.2 °C 29.90in /  1012.4hPa WNW 2.9mph /  4.7km/h 6.0mph /  9.7km/h 29% 0.00in /  0mm 717.0 W/m2
14:03 77.7 °F /  25.4 °C 43.0 °F /  6.1 °C 29.90in /  1012.4hPa West 2.0mph /  3.2km/h 5.0mph /  8km/h 29% 0.00in /  0mm 705.0 W/m2
14:09 77.7 °F /  25.4 °C 42.1 °F /  5.6 °C 29.90in /  1012.4hPa WSW 2.0mph /  3.2km/h 3.0mph /  4.8km/h 28% 0.00in /  0mm 689.0 W/m2
14:15 77.7 °F /  25.4 °C 42.1 °F /  5.6 °C 29.90in /  1012.4hPa NNE 4.9mph /  7.9km/h 11.0mph /  17.7km/h 28% 0.00in /  0mm 673.0 W/m2
14:21 77.7 °F /  25.4 °C 43.0 °F /  6.1 °C 29.89in /  1012.1hPa WSW 0.9mph /  1.4km/h 8.0mph /  12.9km/h 29% 0.00in /  0mm 659.0 W/m2
14:27 78.1 °F /  25.6 °C 43.2 °F /  6.2 °C 29.89in /  1012.1hPa NW 6.9mph /  11.1km/h 7.0mph /  11.3km/h 29% 0.00in /  0mm 642.0 W/m2
14:34 78.3 °F /  25.7 °C 45.1 °F /  7.3 °C 29.89in /  1012.1hPa North 0.9mph /  1.4km/h 4.0mph /  6.4km/h 31% 0.00in /  0mm 617.0 W/m2
14:40 78.4 °F /  25.8 °C 43.5 °F /  6.4 °C 29.89in /  1012.1hPa Calm   3.0mph /  4.8km/h 29% 0.00in /  0mm 603.0 W/m2
14:46 78.4 °F /  25.8 °C 45.3 °F /  7.4 °C 29.89in /  1012.1hPa Calm   3.0mph /  4.8km/h 31% 0.00in /  0mm 582.0 W/m2
14:52 78.4 °F /  25.8 °C 44.4 °F /  6.9 °C 29.89in /  1012.1hPa NE 2.0mph /  3.2km/h 7.0mph /  11.3km/h 30% 0.00in /  0mm 564.0 W/m2
14:58 78.1 °F /  25.6 °C 45.0 °F /  7.2 °C 29.89in /  1012.1hPa North 8.9mph /  14.3km/h 14.0mph /  22.5km/h 31% 0.00in /  0mm 541.0 W/m2
15:04 77.4 °F /  25.2 °C 45.1 °F /  7.3 °C 29.88in /  1011.7hPa SW 2.0mph /  3.2km/h 3.0mph /  4.8km/h 32% 0.00in /  0mm 499.0 W/m2
15:10 77.2 °F /  25.1 °C 45.0 °F /  7.2 °C 29.88in /  1011.7hPa NNW 2.9mph /  4.7km/h 7.0mph /  11.3km/h 32% 0.00in /  0mm 529.0 W/m2
15:16 77.2 °F /  25.1 °C 45.0 °F /  7.2 °C 29.88in /  1011.7hPa West 2.9mph /  4.7km/h 8.0mph /  12.9km/h 32% 0.00in /  0mm 497.0 W/m2
15:23 77.2 °F /  25.1 °C 45.0 °F /  7.2 °C 29.89in /  1012.1hPa NNE 2.0mph /  3.2km/h 7.0mph /  11.3km/h 32% 0.00in /  0mm 478.0 W/m2
15:29 76.8 °F /  24.9 °C 43.9 °F /  6.6 °C 29.89in /  1012.1hPa NW 2.0mph /  3.2km/h 3.0mph /  4.8km/h 31% 0.00in /  0mm 445.0 W/m2
15:35 77.2 °F /  25.1 °C 42.4 °F /  5.8 °C 29.89in /  1012.1hPa NW 4.9mph /  7.9km/h 9.0mph /  14.5km/h 29% 0.00in /  0mm 425.0 W/m2
15:41 77.2 °F /  25.1 °C 43.3 °F /  6.3 °C 29.89in /  1012.1hPa Calm   5.0mph /  8km/h 30% 0.00in /  0mm 399.0 W/m2
15:47 77.4 °F /  25.2 °C 42.6 °F /  5.9 °C 29.89in /  1012.1hPa West 0.9mph /  1.4km/h 2.0mph /  3.2km/h 29% 0.00in /  0mm 376.0 W/m2
15:53 77.4 °F /  25.2 °C 43.5 °F /  6.4 °C 29.89in /  1012.1hPa Calm   1.0mph /  1.6km/h 30% 0.00in /  0mm 353.0 W/m2
15:59 77.4 °F /  25.2 °C 43.5 °F /  6.4 °C 29.89in /  1012.1hPa NNW 0.9mph /  1.4km/h 6.0mph /  9.7km/h 30% 0.00in /  0mm 330.0 W/m2
16:06 77.2 °F /  25.1 °C 44.2 °F /  6.8 °C 29.89in /  1012.1hPa West 2.0mph /  3.2km/h 3.0mph /  4.8km/h 31% 0.00in /  0mm 308.0 W/m2
16:12 76.6 °F /  24.8 °C 43.7 °F /  6.5 °C 29.89in /  1012.1hPa West 4.9mph /  7.9km/h 5.0mph /  8km/h 31% 0.00in /  0mm 227.0 W/m2
16:18 76.1 °F /  24.5 °C 43.3 °F /  6.3 °C 29.89in /  1012.1hPa Calm   2.0mph /  3.2km/h 31% 0.00in /  0mm 35.0 W/m2
16:24 75.6 °F /  24.2 °C 42.8 °F /  6 °C 29.90in /  1012.4hPa Calm   2.0mph /  3.2km/h 31% 0.00in /  0mm 35.0 W/m2
16:30 75.0 °F /  23.9 °C 42.3 °F /  5.7 °C 29.90in /  1012.4hPa NNW 2.0mph /  3.2km/h 4.0mph /  6.4km/h 31% 0.00in /  0mm 30.0 W/m2
16:36 74.5 °F /  23.6 °C 41.0 °F /  5 °C 29.90in /  1012.4hPa NNE 4.0mph /  6.4km/h 8.0mph /  12.9km/h 30% 0.00in /  0mm 26.0 W/m2
16:42 73.9 °F /  23.3 °C 42.3 °F /  5.7 °C 29.90in /  1012.4hPa NW 2.9mph /  4.7km/h 3.0mph /  4.8km/h 32% 0.00in /  0mm 25.0 W/m2
16:48 73.6 °F /  23.1 °C 41.9 °F /  5.5 °C 29.90in /  1012.4hPa NNW 2.0mph /  3.2km/h 3.0mph /  4.8km/h 32% 0.00in /  0mm 46.0 W/m2
16:55 73.2 °F /  22.9 °C 43.2 °F /  6.2 °C 29.90in /  1012.4hPa Calm   1.0mph /  1.6km/h 34% 0.00in /  0mm 19.0 W/m2
17:01 73.0 °F /  22.8 °C 43.0 °F /  6.1 °C 29.90in /  1012.4hPa North 0.9mph /  1.4km/h 1.0mph /  1.6km/h 34% 0.00in /  0mm 28.0 W/m2
17:07 72.9 °F /  22.7 °C 41.4 °F /  5.2 °C 29.91in /  1012.8hPa West 2.9mph /  4.7km/h 6.0mph /  9.7km/h 32% 0.00in /  0mm 19.0 W/m2
17:13 72.3 °F /  22.4 °C 43.2 °F /  6.2 °C 29.91in /  1012.8hPa Calm     35% 0.00in /  0mm 14.0 W/m2
17:19 72.0 °F /  22.2 °C 40.5 °F /  4.7 °C 29.91in /  1012.8hPa Calm   1.0mph /  1.6km/h 32% 0.00in /  0mm 12.0 W/m2
17:25 71.4 °F /  21.9 °C 40.8 °F /  4.9 °C 29.91in /  1012.8hPa Calm   1.0mph /  1.6km/h 33% 0.00in /  0mm 9.0 W/m2
17:31 71.1 °F /  21.7 °C 41.4 °F /  5.2 °C 29.92in /  1013.1hPa Calm     34% 0.00in /  0mm 7.0 W/m2
17:38 70.3 °F /  21.3 °C 40.6 °F /  4.8 °C 29.92in /  1013.1hPa Calm   1.0mph /  1.6km/h 34% 0.00in /  0mm 0.0 W/m2
17:44 70.0 °F /  21.1 °C 41.0 °F /  5 °C 29.92in /  1013.1hPa Calm     35% 0.00in /  0mm 0.0 W/m2
17:52 69.3 °F /  20.7 °C 42.6 °F /  5.9 °C 29.92in /  1013.1hPa Calm   1.0mph /  1.6km/h 38% 0.00in /  0mm 0.0 W/m2
17:58 68.5 °F /  20.3 °C 43.3 °F /  6.3 °C 29.93in /  1013.4hPa Calm     40% 0.00in /  0mm 0.0 W/m2
18:04 67.8 °F /  19.9 °C 43.9 °F /  6.6 °C 29.93in /  1013.4hPa Calm     42% 0.00in /  0mm 0.0 W/m2
18:10 67.3 °F /  19.6 °C 43.3 °F /  6.3 °C 29.93in /  1013.4hPa Calm     42% 0.00in /  0mm 0.0 W/m2
18:17 66.6 °F /  19.2 °C 44.1 °F /  6.7 °C 29.93in /  1013.4hPa Calm     44% 0.00in /  0mm 0.0 W/m2
18:23 66.0 °F /  18.9 °C 44.6 °F /  7 °C 29.93in /  1013.4hPa Calm     46% 0.00in /  0mm 0.0 W/m2
18:29 65.5 °F /  18.6 °C 45.9 °F /  7.7 °C 29.93in /  1013.4hPa Calm   2.0mph /  3.2km/h 49% 0.00in /  0mm 0.0 W/m2
18:35 64.8 °F /  18.2 °C 46.8 °F /  8.2 °C 29.93in /  1013.4hPa Calm     52% 0.00in /  0mm 0.0 W/m2
18:41 64.2 °F /  17.9 °C 47.3 °F /  8.5 °C 29.94in /  1013.8hPa Calm     54% 0.00in /  0mm 0.0 W/m2
18:47 63.7 °F /  17.6 °C 47.7 °F /  8.7 °C 29.94in /  1013.8hPa Calm     56% 0.00in /  0mm 0.0 W/m2
18:53 63.0 °F /  17.2 °C 46.9 °F /  8.3 °C 29.94in /  1013.8hPa Calm   1.0mph /  1.6km/h 56% 0.00in /  0mm 0.0 W/m2
19:00 62.4 °F /  16.9 °C 46.6 °F /  8.1 °C 29.94in /  1013.8hPa Calm     56% 0.00in /  0mm 0.0 W/m2
19:06 62.1 °F /  16.7 °C 46.2 °F /  7.9 °C 29.94in /  1013.8hPa Calm     56% 0.00in /  0mm 0.0 W/m2
19:12 61.7 °F /  16.5 °C 46.8 °F /  8.2 °C 29.95in /  1014.1hPa Calm     58% 0.00in /  0mm 0.0 W/m2
19:18 61.3 °F /  16.3 °C 46.9 °F /  8.3 °C 29.95in /  1014.1hPa Calm     59% 0.00in /  0mm 0.0 W/m2
19:24 61.0 °F /  16.1 °C 46.9 °F /  8.3 °C 29.95in /  1014.1hPa Calm   1.0mph /  1.6km/h 60% 0.00in /  0mm 0.0 W/m2
19:31 60.6 °F /  15.9 °C 47.1 °F /  8.4 °C 29.96in /  1014.4hPa Calm     61% 0.00in /  0mm 0.0 W/m2
19:36 60.3 °F /  15.7 °C 45.9 °F /  7.7 °C 29.96in /  1014.4hPa Calm     59% 0.00in /  0mm 0.0 W/m2
19:43 59.9 °F /  15.5 °C 45.5 °F /  7.5 °C 29.96in /  1014.4hPa Calm   1.0mph /  1.6km/h 59% 0.00in /  0mm 0.0 W/m2
19:49 59.5 °F /  15.3 °C 45.1 °F /  7.3 °C 29.96in /  1014.4hPa SE 0.9mph /  1.4km/h 2.0mph /  3.2km/h 59% 0.00in /  0mm 0.0 W/m2
19:55 59.5 °F /  15.3 °C 46.0 °F /  7.8 °C 29.96in /  1014.4hPa Calm   1.0mph /  1.6km/h 61% 0.00in /  0mm 0.0 W/m2
20:01 59.4 °F /  15.2 °C 46.4 °F /  8 °C 29.96in /  1014.4hPa Calm   1.0mph /  1.6km/h 62% 0.00in /  0mm 0.0 W/m2
20:07 59.2 °F /  15.1 °C 46.2 °F /  7.9 °C 29.96in /  1014.4hPa Calm   1.0mph /  1.6km/h 62% 0.00in /  0mm 0.0 W/m2
20:13 59.2 °F /  15.1 °C 46.2 °F /  7.9 °C 29.97in /  1014.8hPa Calm   2.0mph /  3.2km/h 62% 0.00in /  0mm 0.0 W/m2
20:20 58.8 °F /  14.9 °C 45.9 °F /  7.7 °C 29.97in /  1014.8hPa SE 0.9mph /  1.4km/h 4.0mph /  6.4km/h 62% 0.00in /  0mm 0.0 W/m2
20:26 58.6 °F /  14.8 °C 45.7 °F /  7.6 °C 29.97in /  1014.8hPa Calm   2.0mph /  3.2km/h 62% 0.00in /  0mm 0.0 W/m2
20:32 58.5 °F /  14.7 °C 45.5 °F /  7.5 °C 29.97in /  1014.8hPa ENE 0.9mph /  1.4km/h 4.0mph /  6.4km/h 62% 0.00in /  0mm 0.0 W/m2
20:38 58.5 °F /  14.7 °C 45.9 °F /  7.7 °C 29.97in /  1014.8hPa Calm   1.0mph /  1.6km/h 63% 0.00in /  0mm 0.0 W/m2
20:44 58.3 °F /  14.6 °C 45.7 °F /  7.6 °C 29.97in /  1014.8hPa ESE 0.9mph /  1.4km/h 1.0mph /  1.6km/h 63% 0.00in /  0mm 0.0 W/m2
20:50 58.1 °F /  14.5 °C 45.5 °F /  7.5 °C 29.97in /  1014.8hPa Calm   1.0mph /  1.6km/h 63% 0.00in /  0mm 0.0 W/m2
20:56 57.9 °F /  14.4 °C 45.0 °F /  7.2 °C 29.97in /  1014.8hPa Calm   2.0mph /  3.2km/h 62% 0.00in /  0mm 0.0 W/m2
21:02 57.9 °F /  14.4 °C 45.3 °F /  7.4 °C 29.97in /  1014.8hPa Calm   3.0mph /  4.8km/h 63% 0.00in /  0mm 0.0 W/m2
21:09 57.7 °F /  14.3 °C 45.3 °F /  7.4 °C 29.97in /  1014.8hPa Calm   2.0mph /  3.2km/h 63% 0.00in /  0mm 0.0 W/m2
21:15 57.7 °F /  14.3 °C 45.7 °F /  7.6 °C 29.97in /  1014.8hPa Calm     64% 0.00in /  0mm 0.0 W/m2
21:21 57.6 °F /  14.2 °C 45.9 °F /  7.7 °C 29.97in /  1014.8hPa Calm     65% 0.00in /  0mm 0.0 W/m2
21:27 57.4 °F /  14.1 °C 45.7 °F /  7.6 °C 29.98in /  1015.1hPa Calm     65% 0.00in /  0mm 0.0 W/m2
21:31 57.0 °F /  13.9 °C 45.3 °F /  7.4 °C 29.98in /  1015.1hPa Calm     65% 0.00in /  0mm 0.0 W/m2
21:37 56.8 °F /  13.8 °C 45.1 °F /  7.3 °C 29.98in /  1015.1hPa Calm     65% 0.00in /  0mm 0.0 W/m2
21:43 56.7 °F /  13.7 °C 45.0 °F /  7.2 °C 29.98in /  1015.1hPa Calm   1.0mph /  1.6km/h 65% 0.00in /  0mm 0.0 W/m2
21:49 56.5 °F /  13.6 °C 44.8 °F /  7.1 °C 29.98in /  1015.1hPa Calm   2.0mph /  3.2km/h 65% 0.00in /  0mm 0.0 W/m2
21:56 56.3 °F /  13.5 °C 45.1 °F /  7.3 °C 29.98in /  1015.1hPa Calm     66% 0.00in /  0mm 0.0 W/m2
22:02 56.1 °F /  13.4 °C 45.7 °F /  7.6 °C 29.98in /  1015.1hPa Calm     68% 0.00in /  0mm 0.0 W/m2
22:08 56.1 °F /  13.4 °C 45.7 °F /  7.6 °C 29.98in /  1015.1hPa Calm     68% 0.00in /  0mm 0.0 W/m2
22:14 55.9 °F /  13.3 °C 45.9 °F /  7.7 °C 29.98in /  1015.1hPa Calm     69% 0.00in /  0mm 0.0 W/m2
22:16 55.8 °F /  13.2 °C 45.3 °F /  7.4 °C 29.98in /  1015.1hPa Calm     68% 0.00in /  0mm 0.0 W/m2
22:22 55.6 °F /  13.1 °C 45.5 °F /  7.5 °C 29.97in /  1014.8hPa Calm   1.0mph /  1.6km/h 69% 0.00in /  0mm 0.0 W/m2
22:28 55.4 °F /  13 °C 42.6 °F /  5.9 °C 29.98in /  1015.1hPa SE 0.9mph /  1.4km/h 3.0mph /  4.8km/h 62% 0.00in /  0mm 0.0 W/m2
22:35 55.6 °F /  13.1 °C 41.5 °F /  5.3 °C 29.98in /  1015.1hPa Calm   4.0mph /  6.4km/h 59% 0.00in /  0mm 0.0 W/m2
22:41 55.9 °F /  13.3 °C 42.6 °F /  5.9 °C 29.98in /  1015.1hPa Calm   1.0mph /  1.6km/h 61% 0.00in /  0mm 0.0 W/m2
22:47 56.5 °F /  13.6 °C 44.1 °F /  6.7 °C 29.98in /  1015.1hPa Calm   2.0mph /  3.2km/h 63% 0.00in /  0mm 0.0 W/m2
22:53 56.5 °F /  13.6 °C 42.8 °F /  6 °C 29.98in /  1015.1hPa Calm   2.0mph /  3.2km/h 60% 0.00in /  0mm 0.0 W/m2
22:59 56.7 °F /  13.7 °C 44.2 °F /  6.8 °C 29.98in /  1015.1hPa Calm   2.0mph /  3.2km/h 63% 0.00in /  0mm 0.0 W/m2
23:05 56.7 °F /  13.7 °C 44.2 °F /  6.8 °C 29.98in /  1015.1hPa SW 2.0mph /  3.2km/h 2.0mph /  3.2km/h 63% 0.00in /  0mm 0.0 W/m2
23:11 56.5 °F /  13.6 °C 44.1 °F /  6.7 °C 29.98in /  1015.1hPa SSE 0.9mph /  1.4km/h 1.0mph /  1.6km/h 63% 0.00in /  0mm 0.0 W/m2
23:17 56.5 °F /  13.6 °C 44.1 °F /  6.7 °C 29.98in /  1015.1hPa SSE 0.9mph /  1.4km/h 1.0mph /  1.6km/h 63% 0.00in /  0mm 0.0 W/m2
23:23 56.3 °F /  13.5 °C 43.9 °F /  6.6 °C 29.98in /  1015.1hPa Calm   1.0mph /  1.6km/h 63% 0.00in /  0mm 0.0 W/m2
23:29 56.1 °F /  13.4 °C 43.3 °F /  6.3 °C 29.98in /  1015.1hPa Calm   1.0mph /  1.6km/h 62% 0.00in /  0mm 0.0 W/m2
23:35 56.1 °F /  13.4 °C 43.3 °F /  6.3 °C 29.98in /  1015.1hPa Calm   1.0mph /  1.6km/h 62% 0.00in /  0mm 0.0 W/m2
23:41 55.9 °F /  13.3 °C 43.2 °F /  6.2 °C 29.98in /  1015.1hPa Calm   1.0mph /  1.6km/h 62% 0.00in /  0mm 0.0 W/m2
23:47 55.9 °F /  13.3 °C 43.5 °F /  6.4 °C 29.98in /  1015.1hPa Calm   1.0mph /  1.6km/h 63% 0.00in /  0mm 0.0 W/m2
23:54 55.8 °F /  13.2 °C 43.3 °F /  6.3 °C 29.98in /  1015.1hPa Calm   2.0mph /  3.2km/h 63% 0.00in /  0mm 0.0 W/m2
Olympia, Windhoek, Namibia
Compliments of Weather Underground - 3 mb